Time;durP1;ratioP1;P1;durP2;ratioP2;P2;SDS_P1;SDS_P2;PMS_P1;PMS_P2;Temp;Humidity;BMP_temperature;BMP_pressure;BME280_temperature;BME280_humidity;BME280_pressure;Samples;Min_cycle;Max_cycle;Signal;HPM_P1;HPM_P2
2022/08/28 00:01:36;;;;;;;9.65;3.00;;;15.50;99.90;;;;;;5125898;28;20046;-80
2022/08/28 00:04:02;;;;;;;14.35;3.38;;;15.50;99.90;;;;;;5122501;28;20036;-80
2022/08/28 00:06:28;;;;;;;22.10;3.70;;;15.50;99.90;;;;;;5112991;28;20092;-79
2022/08/28 00:08:54;;;;;;;9.10;2.80;;;15.50;99.90;;;;;;5096145;28;20126;-79
2022/08/28 00:11:20;;;;;;;9.00;3.17;;;15.40;99.90;;;;;;5105469;28;20499;-80
2022/08/28 00:13:47;;;;;;;8.13;2.97;;;15.40;99.90;;;;;;5112650;28;20075;-79
2022/08/28 00:16:13;;;;;;;11.00;3.70;;;15.40;99.90;;;;;;5108761;28;20047;-79
2022/08/28 00:18:38;;;;;;;11.77;3.22;;;15.30;99.90;;;;;;5109489;28;20047;-80
2022/08/28 00:21:05;;;;;;;12.63;3.10;;;15.30;99.90;;;;;;5104328;28;20040;-80
2022/08/28 00:23:31;;;;;;;9.55;3.10;;;15.30;99.90;;;;;;5129492;27;20043;-79
2022/08/28 00:25:58;;;;;;;11.65;2.97;;;15.30;99.90;;;;;;5095513;28;20047;-80
2022/08/28 00:28:24;;;;;;;13.30;3.50;;;15.30;99.90;;;;;;5111224;28;20500;-79
2022/08/28 00:30:53;;;;;;;10.27;2.80;;;15.20;99.90;;;;;;5108114;28;20039;-79
2022/08/28 00:33:24;;;;;;;18.63;3.40;;;15.20;99.90;;;;;;5113877;28;20130;-80
2022/08/28 00:35:50;;;;;;;11.15;3.42;;;15.20;99.90;;;;;;5112079;28;20044;-81
2022/08/28 00:38:18;;;;;;;16.58;3.17;;;15.20;99.90;;;;;;5113098;28;20392;-79
2022/08/28 00:40:47;;;;;;;9.27;3.45;;;15.20;99.90;;;;;;5109221;28;20036;-80
2022/08/28 00:43:33;;;;;;;15.15;3.42;;;15.20;99.90;;;;;;5106380;28;20048;-87
2022/08/28 00:46:01;;;;;;;9.88;3.10;;;15.20;99.90;;;;;;5112182;28;20039;-81
2022/08/28 00:48:27;;;;;;;10.68;3.45;;;15.20;99.90;;;;;;5111752;28;20036;-81
2022/08/28 00:53:37;;;;;;;12.43;3.35;;;15.20;99.90;;;;;;5108381;28;20097;-80
2022/08/28 00:56:07;;;;;;;15.93;3.33;;;15.20;99.90;;;;;;5111873;28;20430;-79
2022/08/28 00:58:33;;;;;;;11.00;3.13;;;15.20;99.90;;;;;;5105358;28;20040;-80
2022/08/28 01:00:59;;;;;;;9.27;3.20;;;15.10;99.90;;;;;;5091944;28;20075;-80
2022/08/28 01:03:25;;;;;;;9.73;2.92;;;15.10;99.90;;;;;;5113926;28;20086;-81
2022/08/28 01:05:52;;;;;;;15.52;3.78;;;15.10;99.90;;;;;;5109970;28;20037;-81
2022/08/28 01:08:18;;;;;;;14.93;3.95;;;15.10;99.90;;;;;;5090560;28;20593;-80
2022/08/28 01:10:50;;;;;;;14.32;4.07;;;15.10;99.90;;;;;;5115496;28;20047;-80
2022/08/28 01:13:16;;;;;;;9.80;3.05;;;15.00;99.90;;;;;;5109939;27;20036;-80
2022/08/28 01:15:43;;;;;;;12.35;3.60;;;15.00;99.90;;;;;;5108117;28;20040;-81
2022/08/28 01:18:14;;;;;;;15.15;3.38;;;15.10;99.90;;;;;;5111185;28;20031;-80
2022/08/28 01:21:04;;;;;;;8.70;3.30;;;15.00;99.90;;;;;;5111145;28;20119;-79
2022/08/28 01:23:52;;;;;;;16.23;3.50;;;15.00;99.90;;;;;;5111953;28;20126;-80
2022/08/28 01:26:18;;;;;;;9.95;3.10;;;15.00;99.90;;;;;;5111099;28;20487;-80
2022/08/28 01:28:44;;;;;;;11.40;3.25;;;15.00;99.90;;;;;;5104093;28;20047;-80
2022/08/28 01:31:12;;;;;;;11.15;3.08;;;14.90;99.90;;;;;;5107156;28;20044;-82
2022/08/28 01:33:39;;;;;;;16.45;3.72;;;14.90;99.90;;;;;;5104519;28;20514;-81
2022/08/28 01:36:06;;;;;;;10.80;3.15;;;14.90;99.90;;;;;;5105294;28;20471;-78
2022/08/28 01:38:32;;;;;;;11.50;2.95;;;15.00;99.90;;;;;;5105005;28;20123;-79
2022/08/28 01:40:58;;;;;;;11.23;3.40;;;14.90;99.90;;;;;;5104285;28;20450;-81
2022/08/28 01:43:26;;;;;;;10.93;3.13;;;14.90;99.90;;;;;;5108259;28;20051;-80
2022/08/28 01:45:54;;;;;;;;;;;14.90;99.90;;;;;;5100227;28;20047;-80
2022/08/28 01:48:22;;;;;;;9.82;2.70;;;14.80;99.90;;;;;;5105279;28;19919;-78
2022/08/28 01:50:49;;;;;;;;;;;14.80;99.90;;;;;;5102710;28;20045;-80
2022/08/28 01:53:17;;;;;;;11.80;3.58;;;14.80;99.90;;;;;;5109741;28;20348;-80
2022/08/28 01:55:43;;;;;;;10.07;3.47;;;14.80;99.90;;;;;;5102594;28;20103;-79
2022/08/28 01:58:10;;;;;;;7.45;2.80;;;14.80;99.90;;;;;;5109392;28;20035;-82
2022/08/28 02:00:36;;;;;;;11.93;2.85;;;14.80;99.90;;;;;;5106602;28;20064;-80
2022/08/28 02:03:02;;;;;;;11.07;3.10;;;14.80;99.90;;;;;;5109198;28;20074;-82
2022/08/28 02:05:30;;;;;;;11.70;3.03;;;14.80;99.90;;;;;;5101378;28;20043;-79
2022/08/28 02:07:57;;;;;;;15.75;3.38;;;14.70;99.90;;;;;;5107966;28;20043;-79
2022/08/28 02:10:24;;;;;;;13.27;3.67;;;14.70;99.90;;;;;;5108069;28;20039;-81
2022/08/28 02:12:54;;;;;;;8.30;3.13;;;14.80;99.90;;;;;;5105585;28;20111;-81
2022/08/28 02:15:20;;;;;;;9.15;3.17;;;14.80;99.90;;;;;;5104225;28;20366;-81
2022/08/28 02:17:46;;;;;;;11.90;2.55;;;14.80;99.90;;;;;;5110061;28;20169;-78
2022/08/28 02:20:12;;;;;;;7.28;2.38;;;14.70;99.90;;;;;;5106806;28;20119;-77
2022/08/28 02:22:37;;;;;;;15.50;2.95;;;14.70;99.90;;;;;;5101880;28;20040;-76
2022/08/28 02:25:04;;;;;;;10.68;2.90;;;14.70;99.90;;;;;;5109471;28;20071;-78
2022/08/28 02:27:31;;;;;;;10.05;3.00;;;14.60;99.90;;;;;;5109624;28;20503;-77
2022/08/28 02:29:57;;;;;;;9.32;2.92;;;14.70;99.90;;;;;;5128005;28;20047;-79
2022/08/28 02:32:25;;;;;;;9.40;2.72;;;14.60;99.90;;;;;;5124453;28;20036;-79
2022/08/28 02:34:52;;;;;;;10.88;3.15;;;14.70;99.90;;;;;;5120437;28;20043;-78
2022/08/28 02:37:19;;;;;;;8.80;2.33;;;14.60;99.90;;;;;;5117328;28;20093;-78
2022/08/28 02:39:45;;;;;;;11.48;2.80;;;14.60;99.90;;;;;;5113245;28;20122;-78
2022/08/28 02:42:11;;;;;;;6.20;2.45;;;14.70;99.90;;;;;;5097425;28;20122;-78
2022/08/28 02:44:37;;;;;;;9.75;2.60;;;14.70;99.90;;;;;;5111526;28;20119;-80
2022/08/28 02:47:03;;;;;;;11.20;3.03;;;14.70;99.90;;;;;;5110658;28;20440;-77
2022/08/28 02:49:30;;;;;;;10.27;3.17;;;14.70;99.90;;;;;;5110410;28;20031;-78
2022/08/28 02:51:57;;;;;;;12.80;2.53;;;14.70;99.90;;;;;;5107061;28;20456;-79
2022/08/28 02:54:25;;;;;;;11.35;2.75;;;14.70;99.90;;;;;;5104832;28;20040;-78
2022/08/28 02:56:50;;;;;;;;;;;14.70;99.90;;;;;;5098452;28;20036;-78
2022/08/28 02:59:16;;;;;;;9.45;2.63;;;14.80;99.90;;;;;;5103782;28;19972;-80
2022/08/28 03:01:42;;;;;;;7.75;3.00;;;14.70;99.90;;;;;;5105479;28;20042;-79
2022/08/28 03:04:07;;;;;;;7.85;2.63;;;14.70;99.90;;;;;;5113013;28;20047;-78
2022/08/28 03:06:33;;;;;;;11.77;2.60;;;14.70;99.90;;;;;;5114290;28;20039;-78
2022/08/28 03:08:59;;;;;;;13.43;2.40;;;14.70;99.90;;;;;;5115480;28;20035;-79
2022/08/28 03:11:26;;;;;;;10.15;2.50;;;14.60;99.90;;;;;;5114836;28;20058;-77
2022/08/28 03:13:52;;;;;;;8.23;3.20;;;14.60;99.90;;;;;;5113626;28;20395;-79
2022/08/28 03:16:17;;;;;;;8.85;2.47;;;14.60;99.90;;;;;;5114786;28;20043;-79
2022/08/28 03:18:43;;;;;;;7.82;2.75;;;14.60;99.90;;;;;;5114870;28;20043;-80
2022/08/28 03:21:10;;;;;;;7.85;2.40;;;14.60;99.90;;;;;;5111493;28;20047;-79
2022/08/28 03:23:36;;;;;;;14.15;2.97;;;14.60;99.90;;;;;;5114578;28;20380;-78
2022/08/28 03:26:13;;;;;;;9.77;3.13;;;14.70;99.90;;;;;;5113123;28;20036;-80
2022/08/28 03:28:45;;;;;;;10.32;2.55;;;14.70;99.90;;;;;;5112723;28;20066;-78
2022/08/28 03:31:15;;;;;;;10.60;2.15;;;14.60;99.90;;;;;;5110854;28;20104;-81
2022/08/28 03:33:41;;;;;;;14.82;2.67;;;14.70;99.90;;;;;;5116595;28;20114;-78
2022/08/28 03:36:12;;;;;;;12.38;2.90;;;14.70;99.90;;;;;;5121138;28;20028;-80
2022/08/28 03:38:38;;;;;;;7.68;2.80;;;14.70;99.90;;;;;;5123765;27;20051;-79
2022/08/28 03:41:10;;;;;;;8.30;1.92;;;14.70;99.90;;;;;;5113211;28;20052;-80
2022/08/28 03:43:35;;;;;;;9.65;2.33;;;14.70;99.90;;;;;;5120034;28;20046;-78
2022/08/28 03:46:04;;;;;;;10.82;3.03;;;14.60;99.90;;;;;;5123381;28;20067;-80
2022/08/28 03:48:33;;;;;;;11.07;2.30;;;14.70;99.90;;;;;;5113559;28;20164;-78
2022/08/28 03:50:59;;;;;;;12.93;2.60;;;14.70;99.90;;;;;;5116735;28;20078;-79
2022/08/28 03:53:27;;;;;;;9.00;2.40;;;14.60;99.90;;;;;;5102169;28;20068;-79
2022/08/28 03:55:54;;;;;;;14.75;2.70;;;14.70;99.90;;;;;;5113933;28;20047;-79
2022/08/28 03:58:21;;;;;;;9.73;2.92;;;14.70;99.90;;;;;;5107049;28;20047;-79
2022/08/28 04:00:47;;;;;;;17.02;3.20;;;14.70;99.90;;;;;;5111095;28;20044;-79
2022/08/28 04:03:12;;;;;;;10.55;2.40;;;14.70;99.90;;;;;;5113227;28;20498;-79
2022/08/28 04:05:42;;;;;;;10.93;2.67;;;14.70;99.90;;;;;;5108261;28;20032;-79
2022/08/28 04:08:11;;;;;;;11.23;2.78;;;14.70;99.90;;;;;;5114460;28;20040;-80
2022/08/28 04:10:37;;;;;;;10.93;2.53;;;14.60;99.90;;;;;;5104499;28;20039;-80
2022/08/28 04:13:02;;;;;;;11.40;2.30;;;14.60;99.90;;;;;;5107333;28;20122;-79
2022/08/28 04:15:28;;;;;;;13.38;2.70;;;14.60;99.90;;;;;;5110563;28;20036;-80
2022/08/28 04:17:54;;;;;;;6.70;2.55;;;14.50;99.90;;;;;;5112710;28;20043;-79
2022/08/28 04:20:20;;;;;;;9.23;2.60;;;14.50;99.90;;;;;;5109113;28;20048;-79
2022/08/28 04:22:47;;;;;;;11.77;2.65;;;14.50;99.90;;;;;;5112019;28;20054;-80
2022/08/28 04:25:13;;;;;;;10.25;3.05;;;14.60;99.90;;;;;;5113184;28;20031;-78
2022/08/28 04:27:39;;;;;;;9.85;2.05;;;14.60;99.90;;;;;;5109096;28;20090;-80
2022/08/28 04:30:07;;;;;;;10.65;3.08;;;14.60;99.90;;;;;;5107576;28;20039;-80
2022/08/28 04:32:34;;;;;;;13.88;2.80;;;14.70;99.90;;;;;;5111969;28;20043;-79
2022/08/28 04:35:00;;;;;;;10.07;2.45;;;14.70;99.90;;;;;;5114322;28;20044;-80
2022/08/28 04:37:25;;;;;;;8.40;2.47;;;14.70;99.90;;;;;;5112114;28;20050;-79
2022/08/28 04:39:52;;;;;;;15.25;3.05;;;14.70;99.90;;;;;;5113234;28;20058;-79
2022/08/28 04:42:18;;;;;;;12.00;2.78;;;14.70;99.90;;;;;;5101026;28;20051;-81
2022/08/28 04:44:44;;;;;;;11.73;2.70;;;14.70;99.90;;;;;;5108920;28;20036;-82
2022/08/28 04:47:09;;;;;;;12.48;2.83;;;14.80;99.90;;;;;;5108916;28;20091;-80
2022/08/28 04:49:35;;;;;;;8.73;2.33;;;14.90;99.90;;;;;;5112335;28;20115;-82
2022/08/28 04:52:02;;;;;;;10.63;2.78;;;15.00;99.90;;;;;;5106649;28;20040;-80
2022/08/28 04:54:27;;;;;;;15.13;3.10;;;15.00;99.90;;;;;;5115513;28;20036;-81
2022/08/28 04:56:53;;;;;;;13.57;2.95;;;15.10;99.90;;;;;;5111842;28;20032;-79
2022/08/28 04:59:19;;;;;;;9.73;2.60;;;15.10;99.90;;;;;;5112366;28;20325;-81
2022/08/28 05:01:44;;;;;;;9.88;2.15;;;15.10;99.90;;;;;;5110860;28;20043;-78
2022/08/28 05:04:11;;;;;;;8.75;2.53;;;15.00;99.90;;;;;;5115934;28;20403;-79
2022/08/28 05:06:42;;;;;;;9.48;2.50;;;15.10;99.90;;;;;;5116661;28;20112;-80
2022/08/28 05:09:07;;;;;;;8.73;2.58;;;15.10;99.90;;;;;;5113002;28;20470;-78
2022/08/28 05:11:34;;;;;;;7.68;2.25;;;15.10;99.90;;;;;;5112242;28;20039;-79
2022/08/28 05:14:00;;;;;;;11.57;2.20;;;15.10;99.90;;;;;;5114124;28;20048;-83
2022/08/28 05:16:25;;;;;;;7.70;2.30;;;15.10;99.90;;;;;;5111607;28;20123;-79
2022/08/28 05:18:51;;;;;;;8.85;2.00;;;15.10;99.90;;;;;;5109257;28;20122;-78
2022/08/28 05:21:21;;;;;;;10.77;2.22;;;15.10;99.90;;;;;;5097400;28;20032;-79
2022/08/28 05:23:48;;;;;;;6.85;2.65;;;15.20;99.90;;;;;;5105912;28;20051;-80
2022/08/28 05:26:16;;;;;;;11.07;2.10;;;15.20;99.90;;;;;;5108899;28;20044;-78
2022/08/28 05:28:42;;;;;;;10.13;2.10;;;15.20;99.90;;;;;;5111875;28;20084;-78
2022/08/28 05:31:15;;;;;;;10.07;2.55;;;15.30;99.90;;;;;;5103530;28;20036;-79
2022/08/28 05:33:42;;;;;;;6.30;2.05;;;15.30;99.90;;;;;;5129388;28;20040;-80
2022/08/28 05:36:08;;;;;;;8.68;2.65;;;15.30;99.90;;;;;;5123679;28;20040;-79
2022/08/28 05:38:34;;;;;;;10.25;2.08;;;15.30;99.90;;;;;;5116514;28;20066;-81
2022/08/28 05:41:00;;;;;;;14.68;2.30;;;15.30;99.90;;;;;;5113588;27;20043;-82
2022/08/28 05:43:26;;;;;;;6.05;2.35;;;15.40;99.90;;;;;;5104379;28;20067;-81
2022/08/28 05:45:59;;;;;;;8.23;2.15;;;15.50;99.90;;;;;;5112999;28;20078;-80
2022/08/28 05:48:28;;;;;;;9.50;1.95;;;15.50;99.90;;;;;;5110486;28;20074;-82
2022/08/28 05:50:56;;;;;;;7.88;1.90;;;15.70;99.90;;;;;;5130563;27;20071;-77
2022/08/28 05:53:22;;;;;;;7.18;1.98;;;15.80;99.90;;;;;;5114560;28;20036;-80
2022/08/28 05:55:47;;;;;;;9.73;2.10;;;15.90;99.90;;;;;;5105219;28;20040;-81
2022/08/28 05:58:28;;;;;;;14.05;2.55;;;16.00;99.90;;;;;;5107301;28;20171;-81
2022/08/28 06:00:55;;;;;;;14.73;2.55;;;16.10;99.90;;;;;;5108237;28;20511;-78
2022/08/28 06:03:21;;;;;;;12.60;2.40;;;16.30;99.90;;;;;;5106055;28;20111;-78
2022/08/28 06:05:54;;;;;;;12.30;2.45;;;16.40;99.90;;;;;;5107028;28;21439;-81
2022/08/28 06:08:21;;;;;;;8.63;2.58;;;16.50;99.90;;;;;;5099632;27;20039;-78
2022/08/28 06:10:48;;;;;;;9.43;2.72;;;16.60;99.90;;;;;;5106398;28;20522;-79
2022/08/28 06:13:14;;;;;;;7.47;2.50;;;16.60;99.90;;;;;;5088929;28;20040;-77
2022/08/28 06:15:44;;;;;;;9.40;3.50;;;16.70;99.90;;;;;;5114767;28;20042;-78
2022/08/28 06:18:11;;;;;;;10.13;2.50;;;16.90;99.90;;;;;;5112596;28;20373;-78
2022/08/28 06:20:42;;;;;;;9.82;2.40;;;17.20;99.90;;;;;;5122718;28;20047;-81
2022/08/28 06:23:13;;;;;;;11.63;2.72;;;17.50;99.90;;;;;;5129932;28;20047;-79
2022/08/28 06:25:41;;;;;;;8.68;2.15;;;17.80;99.90;;;;;;5108929;28;20484;-81
2022/08/28 06:28:07;;;;;;;5.53;2.40;;;18.10;99.90;;;;;;5100949;28;20036;-82
2022/08/28 06:30:37;;;;;;;9.68;2.53;;;18.20;99.90;;;;;;5107055;28;20514;-79
2022/08/28 06:33:04;;;;;;;7.65;2.28;;;18.20;99.90;;;;;;5104880;28;20040;-81
2022/08/28 06:35:31;;;;;;;8.20;2.63;;;18.20;99.90;;;;;;5102353;28;20054;-82
2022/08/28 06:37:57;;;;;;;10.20;2.22;;;18.30;99.90;;;;;;5105395;28;20058;-80
2022/08/28 06:40:24;;;;;;;10.57;2.83;;;18.40;99.90;;;;;;5116218;28;20600;-80
2022/08/28 06:42:50;;;;;;;8.25;2.55;;;18.30;99.90;;;;;;5111232;28;20040;-79
2022/08/28 06:45:16;;;;;;;8.07;2.15;;;18.30;99.90;;;;;;5112753;27;20047;-77
2022/08/28 06:47:42;;;;;;;9.55;2.15;;;18.50;99.90;;;;;;5118605;28;20039;-82
2022/08/28 06:50:08;;;;;;;10.23;2.42;;;18.80;99.90;;;;;;5115070;27;20032;-80
2022/08/28 06:52:34;;;;;;;11.07;2.45;;;19.00;99.90;;;;;;5108342;27;20043;-78
2022/08/28 06:54:59;;;;;;;10.10;2.42;;;19.10;99.90;;;;;;5129710;27;20040;-81
2022/08/28 06:57:25;;;;;;;11.80;2.10;;;19.40;99.90;;;;;;5113345;28;20031;-80
2022/08/28 06:59:58;;;;;;;7.68;2.00;;;19.80;99.60;;;;;;5128725;27;20081;-79
2022/08/28 07:02:23;;;;;;;9.90;2.20;;;19.80;98.40;;;;;;5119147;27;20118;-83
2022/08/28 07:04:52;;;;;;;8.50;2.03;;;19.70;98.80;;;;;;5119938;27;20082;-81
2022/08/28 07:07:19;;;;;;;11.15;2.42;;;19.50;99.00;;;;;;5114390;27;20040;-81
2022/08/28 07:09:45;;;;;;;10.48;2.30;;;19.50;99.10;;;;;;5118813;27;20188;-82
2022/08/28 07:12:15;;;;;;;6.70;1.83;;;19.50;98.80;;;;;;5107922;28;20067;-79
2022/08/28 07:14:40;;;;;;;8.75;2.00;;;19.40;98.90;;;;;;5107127;28;20035;-79
2022/08/28 07:17:06;;;;;;;10.35;2.70;;;19.40;99.40;;;;;;5117801;28;20038;-79
2022/08/28 07:19:33;;;;;;;6.18;2.15;;;19.40;99.00;;;;;;5115536;27;20419;-79
2022/08/28 07:21:59;;;;;;;9.68;2.20;;;19.30;99.20;;;;;;5108847;28;20115;-81
2022/08/28 07:24:25;;;;;;;8.80;2.13;;;19.20;99.30;;;;;;5111018;28;20044;-81
2022/08/28 07:26:51;;;;;;;5.47;1.92;;;19.20;99.50;;;;;;5119028;28;20044;-81
2022/08/28 07:29:17;;;;;;;7.20;2.08;;;19.20;99.40;;;;;;5116935;27;20040;-80
2022/08/28 07:31:47;;;;;;;9.35;2.28;;;19.20;99.00;;;;;;5108037;28;20185;-79
2022/08/28 07:34:15;;;;;;;6.75;1.90;;;19.20;98.50;;;;;;5108986;28;20176;-80
2022/08/28 07:36:42;;;;;;;8.25;2.20;;;19.20;97.90;;;;;;5120229;27;20127;-78
2022/08/28 07:39:09;;;;;;;9.55;2.25;;;19.30;97.20;;;;;;5128088;28;20052;-82
2022/08/28 07:41:41;;;;;;;9.27;2.15;;;19.20;96.90;;;;;;5117129;28;20092;-78
2022/08/28 07:46:55;;;;;;;6.82;2.13;;;19.30;96.20;;;;;;5115727;28;20101;-83
2022/08/28 07:49:23;;;;;;;11.85;2.75;;;19.40;96.60;;;;;;5119300;27;20127;-79
2022/08/28 07:51:49;;;;;;;5.30;2.05;;;19.50;96.00;;;;;;5112568;28;21240;-80
2022/08/28 07:54:15;;;;;;;9.10;2.17;;;19.60;96.10;;;;;;5116640;28;20048;-80
2022/08/28 07:56:41;;;;;;;4.93;2.05;;;19.50;96.00;;;;;;5108590;28;20118;-82
2022/08/28 07:59:09;;;;;;;7.70;2.28;;;19.40;96.30;;;;;;5116543;28;20479;-80
2022/08/28 08:01:38;;;;;;;7.38;2.17;;;19.20;96.90;;;;;;5112795;28;20492;-79
2022/08/28 08:04:08;;;;;;;7.18;2.95;;;19.10;97.50;;;;;;5111611;28;20441;-83
2022/08/28 08:06:36;;;;;;;13.55;2.30;;;18.90;98.00;;;;;;5115014;28;20110;-81
2022/08/28 08:09:04;;;;;;;7.15;1.90;;;18.90;98.50;;;;;;5114726;28;20039;-79
2022/08/28 08:11:30;;;;;;;9.10;2.78;;;19.10;98.50;;;;;;5112416;28;20483;-83
2022/08/28 08:13:58;;;;;;;10.88;2.10;;;19.10;98.00;;;;;;5114105;28;20489;-81
2022/08/28 08:16:24;;;;;;;7.57;1.95;;;19.10;97.70;;;;;;5111348;28;20115;-80
2022/08/28 08:18:51;;;;;;;16.25;2.50;;;19.10;97.70;;;;;;5104328;28;20040;-82
2022/08/28 08:21:19;;;;;;;11.48;2.45;;;19.20;97.80;;;;;;5101617;28;20040;-80
2022/08/28 08:23:46;;;;;;;8.80;2.08;;;19.30;97.50;;;;;;5110653;28;20044;-83
2022/08/28 08:26:18;;;;;;;7.15;2.10;;;19.20;97.50;;;;;;5112219;28;20506;-81
2022/08/28 08:28:45;;;;;;;11.13;2.03;;;19.20;97.50;;;;;;5114005;28;20043;-81
2022/08/28 08:31:21;;;;;;;11.65;2.75;;;19.40;97.30;;;;;;5115303;28;20042;-84
2022/08/28 08:33:49;;;;;;;8.10;2.15;;;19.50;97.60;;;;;;5116453;28;20050;-83
2022/08/28 08:36:17;;;;;;;7.80;2.40;;;19.70;97.00;;;;;;5114877;28;20051;-83
2022/08/28 08:38:43;;;;;;;10.13;2.28;;;19.60;97.00;;;;;;5115182;28;20056;-82
2022/08/28 08:41:16;;;;;;;7.30;1.85;;;19.30;97.40;;;;;;5122839;28;20066;-82
2022/08/28 08:43:54;;;;;;;7.05;2.45;;;19.30;97.80;;;;;;5126538;28;20035;-81
2022/08/28 08:46:36;;;;;;;8.48;2.22;;;19.40;97.20;;;;;;5122197;28;20072;-82
2022/08/28 08:49:09;;;;;;;9.60;2.33;;;19.50;96.60;;;;;;5119322;28;20040;-83
2022/08/28 08:51:46;;;;;;;10.00;2.38;;;19.60;96.60;;;;;;5119164;27;20069;-80
2022/08/28 08:54:15;;;;;;;7.25;2.15;;;19.80;96.50;;;;;;5125847;28;20078;-84
2022/08/28 08:56:42;;;;;;;11.30;2.40;;;19.90;96.30;;;;;;5121571;28;20037;-84
2022/08/28 08:59:30;;;;;;;5.90;2.03;;;20.00;96.40;;;;;;5104512;28;20508;-80
2022/08/28 09:02:13;;;;;;;6.37;2.43;;;20.00;96.10;;;;;;5097668;28;20111;-80
2022/08/28 09:04:57;;;;;;;6.82;2.15;;;20.00;94.60;;;;;;5110025;28;20040;-82
2022/08/28 09:07:33;;;;;;;9.02;2.53;;;19.90;94.60;;;;;;5111406;28;20063;-80
2022/08/28 09:09:59;;;;;;;8.18;2.53;;;20.00;94.10;;;;;;5124782;27;20050;-81
2022/08/28 09:12:33;;;;;;;10.23;2.47;;;20.20;94.20;;;;;;5115830;28;20040;-84
2022/08/28 09:15:15;;;;;;;9.25;1.98;;;20.20;93.70;;;;;;5103820;28;20040;-81
2022/08/28 09:17:56;;;;;;;9.38;2.13;;;20.20;93.00;;;;;;5112579;28;20048;-82
2022/08/28 09:20:26;;;;;;;11.57;2.30;;;20.20;92.80;;;;;;5115471;28;20567;-83
2022/08/28 09:22:53;;;;;;;6.07;2.30;;;20.30;93.10;;;;;;5118750;28;20036;-83
2022/08/28 09:25:43;;;;;;;7.25;1.98;;;20.30;93.10;;;;;;5117785;27;20102;-82
2022/08/28 09:28:33;;;;;;;7.40;2.17;;;20.50;93.70;;;;;;5103965;27;20052;-83
2022/08/28 09:31:14;;;;;;;5.57;2.17;;;20.40;92.20;;;;;;5104314;28;20067;-83
2022/08/28 09:33:50;;;;;;;7.45;2.35;;;20.20;92.70;;;;;;5113917;28;20088;-83
2022/08/28 09:36:37;;;;;;;5.53;2.20;;;20.00;92.90;;;;;;5116936;28;20040;-81
2022/08/28 09:39:24;;;;;;;7.30;2.08;;;19.80;92.50;;;;;;5112808;28;20047;-85
2022/08/28 09:45:17;;;;;;;7.68;2.40;;;20.10;92.90;;;;;;5086101;28;20056;-85
2022/08/28 09:47:44;;;;;;;7.47;2.50;;;20.30;92.90;;;;;;5116190;28;20048;-83
2022/08/28 09:50:29;;;;;;;7.30;2.05;;;20.40;92.50;;;;;;5117020;28;20106;-83
2022/08/28 09:52:58;;;;;;;6.03;1.80;;;20.50;92.40;;;;;;5111633;28;20504;-82
2022/08/28 09:55:31;;;;;;;8.95;1.92;;;20.50;92.70;;;;;;5113243;28;20421;-81
2022/08/28 09:57:57;;;;;;;9.07;2.45;;;20.40;92.00;;;;;;5116528;28;20082;-80
2022/08/28 10:00:23;;;;;;;8.80;2.30;;;20.50;92.90;;;;;;5117087;28;20048;-81
2022/08/28 10:03:03;;;;;;;14.00;3.03;;;20.60;93.20;;;;;;5098678;28;20112;-81
2022/08/28 10:05:40;;;;;;;12.35;2.75;;;20.60;91.90;;;;;;5114383;28;20477;-81
2022/08/28 10:08:35;;;;;;;7.57;2.38;;;20.60;92.80;;;;;;5113605;28;20043;-84
2022/08/28 10:11:36;;;;;;;8.20;2.47;;;20.50;93.30;;;;;;5119802;28;20125;-84
2022/08/28 10:14:24;;;;;;;9.05;2.30;;;20.80;93.00;;;;;;5116441;28;20100;-84
2022/08/28 10:16:59;;;;;;;8.65;2.30;;;21.10;92.80;;;;;;5097318;28;20044;-84
2022/08/28 10:19:58;;;;;;;6.43;2.35;;;21.10;92.60;;;;;;5116293;28;20047;-85
2022/08/28 10:22:58;;;;;;;7.03;2.10;;;21.10;92.20;;;;;;5110549;28;20047;-83
2022/08/28 10:25:51;;;;;;;9.25;2.70;;;21.20;92.30;;;;;;5102503;28;20058;-81
2022/08/28 10:28:33;;;;;;;5.05;2.15;;;21.00;91.90;;;;;;5094720;28;20083;-82
2022/08/28 10:31:21;;;;;;;7.00;2.00;;;20.70;90.40;;;;;;5108770;28;20047;-83
2022/08/28 10:33:58;;;;;;;5.15;1.90;;;20.70;90.80;;;;;;5108030;28;20388;-82
2022/08/28 10:36:29;;;;;;;11.13;2.30;;;21.00;90.70;;;;;;5095900;28;20073;-81
2022/08/28 10:39:20;;;;;;;7.57;2.08;;;21.30;90.90;;;;;;5111762;28;20055;-85
2022/08/28 10:41:45;;;;;;;5.85;2.20;;;21.40;90.20;;;;;;5083188;28;20052;-82
2022/08/28 10:44:20;;;;;;;6.28;2.05;;;21.20;90.20;;;;;;5109883;28;20046;-82
2022/08/28 10:46:49;;;;;;;8.20;2.30;;;21.20;90.70;;;;;;5110087;28;20043;-86
2022/08/28 10:49:30;;;;;;;4.38;1.80;;;21.60;90.90;;;;;;5113817;28;20055;-84
2022/08/28 10:52:03;;;;;;;10.73;3.05;;;22.00;90.30;;;;;;5114634;28;20131;-81
2022/08/28 10:54:39;;;;;;;6.32;2.25;;;21.90;88.40;;;;;;5126465;28;20040;-83
2022/08/28 10:57:35;;;;;;;7.15;2.33;;;21.60;89.30;;;;;;5094172;28;20411;-85
2022/08/28 11:00:21;;;;;;;7.22;2.75;;;21.60;90.10;;;;;;5095618;28;20047;-83
2022/08/28 11:03:01;;;;;;;6.78;2.10;;;21.40;89.40;;;;;;5105829;28;20134;-84
2022/08/28 11:05:46;;;;;;;8.93;2.42;;;21.20;90.30;;;;;;5092689;28;20075;-84
2022/08/28 11:08:30;;;;;;;8.75;2.58;;;21.30;90.60;;;;;;5107471;28;20503;-85
2022/08/28 11:10:59;;;;;;;6.90;2.08;;;21.70;90.30;;;;;;5110021;28;20403;-83
2022/08/28 11:13:46;;;;;;;6.93;2.55;;;21.90;88.50;;;;;;5109859;28;20048;-84
2022/08/28 11:16:17;;;;;;;7.70;2.40;;;21.80;88.90;;;;;;5105113;28;20056;-81
2022/08/28 11:19:04;;;;;;;5.80;1.92;;;21.80;86.90;;;;;;5111785;28;20376;-81
2022/08/28 11:21:39;;;;;;;3.90;2.00;;;21.80;86.00;;;;;;5103888;28;20127;-80
2022/08/28 11:24:25;;;;;;;6.05;2.25;;;21.80;86.40;;;;;;5110917;28;20048;-80
2022/08/28 11:27:15;;;;;;;7.60;2.42;;;21.90;86.20;;;;;;5129963;28;20071;-80
2022/08/28 11:30:10;;;;;;;4.53;2.00;;;21.70;86.90;;;;;;5115074;28;20031;-80
2022/08/28 11:32:51;;;;;;;9.43;2.30;;;21.80;86.40;;;;;;5112753;28;20047;-79
2022/08/28 11:35:19;;;;;;;8.15;2.50;;;21.80;85.30;;;;;;5112197;28;20115;-84
2022/08/28 11:37:53;;;;;;;5.75;2.17;;;21.70;86.10;;;;;;5096094;28;20051;-79
2022/08/28 11:40:51;;;;;;;7.40;2.05;;;21.60;86.30;;;;;;5106772;28;20044;-82
2022/08/28 11:43:17;;;;;;;6.95;2.33;;;21.40;86.10;;;;;;5106855;28;20097;-81
2022/08/28 11:45:46;;;;;;;5.07;2.10;;;21.50;86.00;;;;;;5112594;28;20097;-81
2022/08/28 11:48:27;;;;;;;7.35;2.50;;;21.70;85.40;;;;;;5118633;28;20044;-80
2022/08/28 11:50:57;;;;;;;9.48;2.42;;;21.90;85.00;;;;;;5110202;28;20059;-83
2022/08/28 11:53:53;;;;;;;7.82;2.42;;;22.00;84.90;;;;;;5092540;28;20092;-81
2022/08/28 11:56:52;;;;;;;3.78;1.90;;;22.20;85.10;;;;;;5116691;28;20047;-82
2022/08/28 11:59:50;;;;;;;7.53;2.40;;;22.20;84.50;;;;;;5112274;28;20065;-80
2022/08/28 12:02:34;;;;;;;10.23;2.10;;;22.10;84.50;;;;;;5111161;28;20037;-85
2022/08/28 12:05:02;;;;;;;5.63;2.20;;;22.20;85.30;;;;;;5105876;28;20083;-82
2022/08/28 12:07:35;;;;;;;;;;;22.40;84.00;;;;;;5114995;28;20460;-80
2022/08/28 12:10:01;;;;;;;8.10;2.30;;;22.10;85.30;;;;;;5112918;27;20042;-81
2022/08/28 12:12:27;;;;;;;6.35;2.50;;;21.60;87.40;;;;;;5110050;28;20067;-84
2022/08/28 12:15:01;;;;;;;8.52;2.35;;;21.50;89.10;;;;;;5110928;27;20071;-86
2022/08/28 12:17:40;;;;;;;8.63;2.38;;;21.60;89.10;;;;;;5111651;28;20132;-85
2022/08/28 12:20:28;;;;;;;13.63;2.20;;;21.40;89.40;;;;;;5114388;28;20044;-83
2022/08/28 12:22:58;;;;;;;10.95;2.38;;;21.30;90.30;;;;;;5116812;28;20066;-82
2022/08/28 12:25:32;;;;;;;5.70;2.35;;;21.50;90.20;;;;;;5117384;28;20061;-81
2022/08/28 12:28:06;;;;;;;6.97;1.90;;;21.90;87.70;;;;;;5120220;28;20055;-81
2022/08/28 12:30:46;;;;;;;4.90;2.20;;;22.10;86.30;;;;;;5123778;28;20036;-83
2022/08/28 12:33:35;;;;;;;5.40;1.65;;;22.10;86.50;;;;;;5125041;28;20040;-83
2022/08/28 12:36:04;;;;;;;11.70;2.45;;;22.10;85.30;;;;;;5120849;28;20123;-81
2022/08/28 12:38:33;;;;;;;6.93;2.00;;;22.10;84.30;;;;;;5117139;28;20108;-82
2022/08/28 12:41:01;;;;;;;7.88;2.40;;;21.90;85.80;;;;;;5118224;28;20059;-83
2022/08/28 12:43:27;;;;;;;4.53;1.88;;;21.90;86.00;;;;;;5121064;28;20050;-81
2022/08/28 12:46:23;;;;;;;7.30;1.90;;;21.70;86.40;;;;;;5121586;28;20039;-82
2022/08/28 12:48:50;;;;;;;9.55;2.50;;;21.50;86.70;;;;;;5097014;28;20055;-80
2022/08/28 12:51:23;;;;;;;9.68;2.05;;;21.60;87.50;;;;;;5113407;28;20112;-84
2022/08/28 12:53:54;;;;;;;5.10;1.70;;;21.50;88.10;;;;;;5110082;28;20522;-82
2022/08/28 12:56:22;;;;;;;5.32;2.05;;;21.40;88.90;;;;;;5095306;28;20047;-82
2022/08/28 12:58:49;;;;;;;4.72;1.60;;;21.40;88.90;;;;;;5113791;28;20133;-82
2022/08/28 13:01:32;;;;;;;5.95;2.38;;;21.40;88.80;;;;;;5094350;28;20090;-82
2022/08/28 13:04:21;;;;;;;7.63;2.17;;;21.20;89.80;;;;;;5093900;28;20055;-82
2022/08/28 13:06:47;;;;;;;6.90;1.85;;;21.40;90.40;;;;;;5108335;28;20043;-83
2022/08/28 13:09:19;;;;;;;6.30;1.70;;;21.80;90.50;;;;;;5111015;28;20036;-83
2022/08/28 13:11:48;;;;;;;6.35;1.50;;;22.10;89.30;;;;;;5114554;28;20074;-86